sensor_id;sensor_type;location;lat;lon;timestamp;temperature;humidity
22771;DHT22;11552;50.786;4.332;2022-11-15T00:02:09;12.40;99.90
22771;DHT22;11552;50.786;4.332;2022-11-15T00:04:34;12.40;99.90
22771;DHT22;11552;50.786;4.332;2022-11-15T00:08:53;12.40;99.90
22771;DHT22;11552;50.786;4.332;2022-11-15T00:11:33;12.40;99.90
22771;DHT22;11552;50.786;4.332;2022-11-15T00:13:59;12.40;99.90
22771;DHT22;11552;50.786;4.332;2022-11-15T00:16:27;12.50;99.90
22771;DHT22;11552;50.786;4.332;2022-11-15T00:18:53;12.60;99.90
22771;DHT22;11552;50.786;4.332;2022-11-15T00:21:18;12.60;99.90
22771;DHT22;11552;50.786;4.332;2022-11-15T00:23:44;12.50;99.90
22771;DHT22;11552;50.786;4.332;2022-11-15T00:26:10;12.50;99.90
22771;DHT22;11552;50.786;4.332;2022-11-15T00:28:36;12.50;99.90
22771;DHT22;11552;50.786;4.332;2022-11-15T00:31:05;12.60;99.90
22771;DHT22;11552;50.786;4.332;2022-11-15T00:33:32;12.60;99.90
22771;DHT22;11552;50.786;4.332;2022-11-15T00:36:01;12.60;99.90
22771;DHT22;11552;50.786;4.332;2022-11-15T00:38:31;12.60;99.90
22771;DHT22;11552;50.786;4.332;2022-11-15T00:40:57;12.60;99.90
22771;DHT22;11552;50.786;4.332;2022-11-15T00:43:22;12.60;99.90
22771;DHT22;11552;50.786;4.332;2022-11-15T00:45:48;12.60;99.90
22771;DHT22;11552;50.786;4.332;2022-11-15T00:48:13;12.70;99.90
22771;DHT22;11552;50.786;4.332;2022-11-15T00:50:39;12.70;99.90
22771;DHT22;11552;50.786;4.332;2022-11-15T00:53:04;12.70;99.90
22771;DHT22;11552;50.786;4.332;2022-11-15T00:55:30;12.70;99.90
22771;DHT22;11552;50.786;4.332;2022-11-15T00:57:55;12.60;99.90
22771;DHT22;11552;50.786;4.332;2022-11-15T01:00:21;12.70;99.90
22771;DHT22;11552;50.786;4.332;2022-11-15T01:02:46;12.70;99.90
22771;DHT22;11552;50.786;4.332;2022-11-15T01:05:12;12.70;99.90
22771;DHT22;11552;50.786;4.332;2022-11-15T01:07:37;12.70;99.90
22771;DHT22;11552;50.786;4.332;2022-11-15T01:10:03;12.70;99.90
22771;DHT22;11552;50.786;4.332;2022-11-15T01:12:29;12.70;99.90
22771;DHT22;11552;50.786;4.332;2022-11-15T01:14:54;12.80;99.90
22771;DHT22;11552;50.786;4.332;2022-11-15T01:17:20;12.80;99.90
22771;DHT22;11552;50.786;4.332;2022-11-15T01:19:45;12.70;99.90
22771;DHT22;11552;50.786;4.332;2022-11-15T01:22:11;12.70;99.90
22771;DHT22;11552;50.786;4.332;2022-11-15T01:24:36;12.60;99.90
22771;DHT22;11552;50.786;4.332;2022-11-15T01:27:02;12.60;99.90
22771;DHT22;11552;50.786;4.332;2022-11-15T01:29:27;12.50;99.90
22771;DHT22;11552;50.786;4.332;2022-11-15T01:31:53;12.50;99.90
22771;DHT22;11552;50.786;4.332;2022-11-15T01:34:19;12.40;99.90
22771;DHT22;11552;50.786;4.332;2022-11-15T01:36:44;12.50;99.90
22771;DHT22;11552;50.786;4.332;2022-11-15T01:39:10;12.50;99.90
22771;DHT22;11552;50.786;4.332;2022-11-15T01:41:35;12.50;99.90
22771;DHT22;11552;50.786;4.332;2022-11-15T01:49:18;12.60;99.90
22771;DHT22;11552;50.786;4.332;2022-11-15T01:51:44;12.70;99.90
22771;DHT22;11552;50.786;4.332;2022-11-15T01:54:11;12.70;99.90
22771;DHT22;11552;50.786;4.332;2022-11-15T01:56:38;12.70;99.90
22771;DHT22;11552;50.786;4.332;2022-11-15T01:59:06;12.70;99.90
22771;DHT22;11552;50.786;4.332;2022-11-15T02:01:33;12.80;99.90
22771;DHT22;11552;50.786;4.332;2022-11-15T02:04:12;12.80;99.90
22771;DHT22;11552;50.786;4.332;2022-11-15T02:06:38;12.80;99.90
22771;DHT22;11552;50.786;4.332;2022-11-15T02:09:05;12.80;99.90
22771;DHT22;11552;50.786;4.332;2022-11-15T02:11:30;12.80;99.90
22771;DHT22;11552;50.786;4.332;2022-11-15T02:13:56;12.80;99.90
22771;DHT22;11552;50.786;4.332;2022-11-15T02:18:57;12.80;99.90
22771;DHT22;11552;50.786;4.332;2022-11-15T02:21:28;12.80;99.90
22771;DHT22;11552;50.786;4.332;2022-11-15T02:24:11;13.00;99.90
22771;DHT22;11552;50.786;4.332;2022-11-15T02:26:48;12.90;99.90
22771;DHT22;11552;50.786;4.332;2022-11-15T02:29:26;12.80;99.90
22771;DHT22;11552;50.786;4.332;2022-11-15T02:34:30;12.90;99.90
22771;DHT22;11552;50.786;4.332;2022-11-15T02:37:07;12.90;99.90
22771;DHT22;11552;50.786;4.332;2022-11-15T02:39:40;13.00;99.90
22771;DHT22;11552;50.786;4.332;2022-11-15T02:42:14;12.90;99.90
22771;DHT22;11552;50.786;4.332;2022-11-15T02:45:13;13.00;99.90
22771;DHT22;11552;50.786;4.332;2022-11-15T02:47:42;12.90;99.90
22771;DHT22;11552;50.786;4.332;2022-11-15T02:50:10;12.80;99.90
22771;DHT22;11552;50.786;4.332;2022-11-15T02:52:36;12.70;99.90
22771;DHT22;11552;50.786;4.332;2022-11-15T02:55:02;12.70;99.90
22771;DHT22;11552;50.786;4.332;2022-11-15T02:57:38;12.70;99.90
22771;DHT22;11552;50.786;4.332;2022-11-15T03:00:12;12.80;99.90
22771;DHT22;11552;50.786;4.332;2022-11-15T03:02:57;12.80;99.90
22771;DHT22;11552;50.786;4.332;2022-11-15T03:12:54;12.90;99.90
22771;DHT22;11552;50.786;4.332;2022-11-15T03:15:21;12.90;99.90
22771;DHT22;11552;50.786;4.332;2022-11-15T03:17:51;12.80;99.90
22771;DHT22;11552;50.786;4.332;2022-11-15T03:20:18;12.80;99.90
22771;DHT22;11552;50.786;4.332;2022-11-15T03:22:44;12.70;99.90
22771;DHT22;11552;50.786;4.332;2022-11-15T03:25:13;12.70;99.90
22771;DHT22;11552;50.786;4.332;2022-11-15T03:27:42;12.70;99.90
22771;DHT22;11552;50.786;4.332;2022-11-15T03:30:09;12.70;99.90
22771;DHT22;11552;50.786;4.332;2022-11-15T03:32:39;12.60;99.90
22771;DHT22;11552;50.786;4.332;2022-11-15T03:35:06;12.60;99.90
22771;DHT22;11552;50.786;4.332;2022-11-15T03:39:58;12.60;99.90
22771;DHT22;11552;50.786;4.332;2022-11-15T03:42:27;12.60;99.90
22771;DHT22;11552;50.786;4.332;2022-11-15T03:47:29;12.50;99.90
22771;DHT22;11552;50.786;4.332;2022-11-15T03:50:01;12.50;99.90
22771;DHT22;11552;50.786;4.332;2022-11-15T03:52:30;12.40;99.90
22771;DHT22;11552;50.786;4.332;2022-11-15T03:54:56;12.40;99.90
22771;DHT22;11552;50.786;4.332;2022-11-15T03:57:22;12.40;99.90
22771;DHT22;11552;50.786;4.332;2022-11-15T04:00:21;12.30;99.90
22771;DHT22;11552;50.786;4.332;2022-11-15T04:02:46;12.40;99.90
22771;DHT22;11552;50.786;4.332;2022-11-15T04:05:12;12.40;99.90
22771;DHT22;11552;50.786;4.332;2022-11-15T04:07:37;12.40;99.90
22771;DHT22;11552;50.786;4.332;2022-11-15T04:10:03;12.40;99.90
22771;DHT22;11552;50.786;4.332;2022-11-15T04:12:29;12.30;99.90
22771;DHT22;11552;50.786;4.332;2022-11-15T04:20:15;12.40;99.90
22771;DHT22;11552;50.786;4.332;2022-11-15T04:23:00;12.30;99.90
22771;DHT22;11552;50.786;4.332;2022-11-15T04:25:45;12.30;99.90
22771;DHT22;11552;50.786;4.332;2022-11-15T04:28:11;12.30;99.90
22771;DHT22;11552;50.786;4.332;2022-11-15T04:30:36;12.30;99.90
22771;DHT22;11552;50.786;4.332;2022-11-15T04:33:02;12.30;99.90
22771;DHT22;11552;50.786;4.332;2022-11-15T04:36:23;12.20;99.90
22771;DHT22;11552;50.786;4.332;2022-11-15T04:39:08;12.10;99.90
22771;DHT22;11552;50.786;4.332;2022-11-15T04:43:18;12.10;99.90
22771;DHT22;11552;50.786;4.332;2022-11-15T04:45:44;12.20;99.90
22771;DHT22;11552;50.786;4.332;2022-11-15T04:48:09;12.20;99.90
22771;DHT22;11552;50.786;4.332;2022-11-15T04:50:35;12.00;99.90
22771;DHT22;11552;50.786;4.332;2022-11-15T04:53:00;12.00;99.90
22771;DHT22;11552;50.786;4.332;2022-11-15T04:55:26;11.80;99.90
22771;DHT22;11552;50.786;4.332;2022-11-15T04:57:58;11.80;99.90
22771;DHT22;11552;50.786;4.332;2022-11-15T05:00:24;11.80;99.90
22771;DHT22;11552;50.786;4.332;2022-11-15T05:02:49;11.90;99.90
22771;DHT22;11552;50.786;4.332;2022-11-15T05:05:34;11.90;99.90
22771;DHT22;11552;50.786;4.332;2022-11-15T05:08:00;11.90;99.90
22771;DHT22;11552;50.786;4.332;2022-11-15T05:10:25;11.80;99.90
22771;DHT22;11552;50.786;4.332;2022-11-15T05:12:51;11.80;99.90
22771;DHT22;11552;50.786;4.332;2022-11-15T05:15:16;11.80;99.90
22771;DHT22;11552;50.786;4.332;2022-11-15T05:17:42;11.70;99.90
22771;DHT22;11552;50.786;4.332;2022-11-15T05:20:08;11.80;99.90
22771;DHT22;11552;50.786;4.332;2022-11-15T05:22:33;11.70;99.90
22771;DHT22;11552;50.786;4.332;2022-11-15T05:26:21;11.60;99.90
22771;DHT22;11552;50.786;4.332;2022-11-15T05:28:51;11.40;99.90
22771;DHT22;11552;50.786;4.332;2022-11-15T05:31:17;11.30;99.90
22771;DHT22;11552;50.786;4.332;2022-11-15T05:33:42;11.30;99.90
22771;DHT22;11552;50.786;4.332;2022-11-15T05:38:39;11.20;99.90
22771;DHT22;11552;50.786;4.332;2022-11-15T05:41:05;11.20;99.90
22771;DHT22;11552;50.786;4.332;2022-11-15T05:43:31;11.20;99.90
22771;DHT22;11552;50.786;4.332;2022-11-15T05:45:58;11.10;99.90
22771;DHT22;11552;50.786;4.332;2022-11-15T05:48:24;11.10;99.90
22771;DHT22;11552;50.786;4.332;2022-11-15T05:50:50;11.00;99.90
22771;DHT22;11552;50.786;4.332;2022-11-15T05:53:17;11.00;99.90
22771;DHT22;11552;50.786;4.332;2022-11-15T05:55:43;11.10;99.90
22771;DHT22;11552;50.786;4.332;2022-11-15T05:58:08;11.00;99.90
22771;DHT22;11552;50.786;4.332;2022-11-15T06:00:34;11.00;99.90
22771;DHT22;11552;50.786;4.332;2022-11-15T06:03:00;11.20;99.90
22771;DHT22;11552;50.786;4.332;2022-11-15T06:06:37;11.20;99.90
22771;DHT22;11552;50.786;4.332;2022-11-15T06:09:38;11.00;99.90
22771;DHT22;11552;50.786;4.332;2022-11-15T06:12:04;11.00;99.90
22771;DHT22;11552;50.786;4.332;2022-11-15T06:14:29;11.00;99.90
22771;DHT22;11552;50.786;4.332;2022-11-15T06:16:55;11.00;99.90
22771;DHT22;11552;50.786;4.332;2022-11-15T06:19:20;11.00;99.90
22771;DHT22;11552;50.786;4.332;2022-11-15T06:21:46;11.00;99.90
22771;DHT22;11552;50.786;4.332;2022-11-15T06:25:20;10.90;99.90
22771;DHT22;11552;50.786;4.332;2022-11-15T06:29:32;10.80;99.90
22771;DHT22;11552;50.786;4.332;2022-11-15T06:31:57;10.70;99.90
22771;DHT22;11552;50.786;4.332;2022-11-15T06:34:23;10.60;99.90
22771;DHT22;11552;50.786;4.332;2022-11-15T06:36:49;10.70;99.90
22771;DHT22;11552;50.786;4.332;2022-11-15T06:39:14;10.60;99.90
22771;DHT22;11552;50.786;4.332;2022-11-15T06:41:40;10.60;99.90
22771;DHT22;11552;50.786;4.332;2022-11-15T06:44:05;10.60;99.90
22771;DHT22;11552;50.786;4.332;2022-11-15T06:46:31;10.50;99.90
22771;DHT22;11552;50.786;4.332;2022-11-15T06:48:56;10.60;99.90
22771;DHT22;11552;50.786;4.332;2022-11-15T06:53:57;10.40;99.90
22771;DHT22;11552;50.786;4.332;2022-11-15T06:56:23;10.60;99.90
22771;DHT22;11552;50.786;4.332;2022-11-15T06:58:48;10.60;99.90
22771;DHT22;11552;50.786;4.332;2022-11-15T07:01:14;10.60;99.90
22771;DHT22;11552;50.786;4.332;2022-11-15T07:04:07;10.60;99.90
22771;DHT22;11552;50.786;4.332;2022-11-15T07:06:33;10.50;99.90
22771;DHT22;11552;50.786;4.332;2022-11-15T07:09:31;10.50;99.90
22771;DHT22;11552;50.786;4.332;2022-11-15T07:11:57;10.40;99.90
22771;DHT22;11552;50.786;4.332;2022-11-15T07:14:22;10.50;99.90
22771;DHT22;11552;50.786;4.332;2022-11-15T07:16:48;10.60;99.90
22771;DHT22;11552;50.786;4.332;2022-11-15T07:19:13;10.60;99.90
22771;DHT22;11552;50.786;4.332;2022-11-15T07:21:39;10.60;99.90
22771;DHT22;11552;50.786;4.332;2022-11-15T07:24:04;10.60;99.90
22771;DHT22;11552;50.786;4.332;2022-11-15T07:26:30;10.70;99.90
22771;DHT22;11552;50.786;4.332;2022-11-15T07:28:55;10.70;99.90
22771;DHT22;11552;50.786;4.332;2022-11-15T07:33:06;10.60;99.90
22771;DHT22;11552;50.786;4.332;2022-11-15T07:35:32;10.50;99.90
22771;DHT22;11552;50.786;4.332;2022-11-15T07:37:58;10.60;99.90
22771;DHT22;11552;50.786;4.332;2022-11-15T07:40:24;10.60;99.90
22771;DHT22;11552;50.786;4.332;2022-11-15T07:42:50;10.60;99.90
22771;DHT22;11552;50.786;4.332;2022-11-15T07:45:18;10.70;99.90
22771;DHT22;11552;50.786;4.332;2022-11-15T07:47:48;10.70;99.90
22771;DHT22;11552;50.786;4.332;2022-11-15T07:50:13;10.70;99.90
22771;DHT22;11552;50.786;4.332;2022-11-15T07:52:39;10.80;99.90
22771;DHT22;11552;50.786;4.332;2022-11-15T07:55:04;10.90;99.90
22771;DHT22;11552;50.786;4.332;2022-11-15T07:57:30;10.90;99.90
22771;DHT22;11552;50.786;4.332;2022-11-15T08:04:54;10.90;99.90
22771;DHT22;11552;50.786;4.332;2022-11-15T08:07:20;11.00;99.90
22771;DHT22;11552;50.786;4.332;2022-11-15T08:09:45;11.10;99.90
22771;DHT22;11552;50.786;4.332;2022-11-15T08:14:40;11.00;99.90
22771;DHT22;11552;50.786;4.332;2022-11-15T08:20:09;11.20;99.90
22771;DHT22;11552;50.786;4.332;2022-11-15T08:23:51;11.40;99.90
22771;DHT22;11552;50.786;4.332;2022-11-15T08:26:17;11.30;99.90
22771;DHT22;11552;50.786;4.332;2022-11-15T08:28:43;11.30;99.90
22771;DHT22;11552;50.786;4.332;2022-11-15T08:31:15;11.40;99.90
22771;DHT22;11552;50.786;4.332;2022-11-15T08:33:42;11.30;99.90
22771;DHT22;11552;50.786;4.332;2022-11-15T08:36:10;11.40;99.90
22771;DHT22;11552;50.786;4.332;2022-11-15T08:38:37;11.40;99.90
22771;DHT22;11552;50.786;4.332;2022-11-15T08:41:03;11.60;99.90
22771;DHT22;11552;50.786;4.332;2022-11-15T08:44:25;11.70;99.90
22771;DHT22;11552;50.786;4.332;2022-11-15T08:46:51;11.70;99.90
22771;DHT22;11552;50.786;4.332;2022-11-15T08:49:17;11.80;99.90
22771;DHT22;11552;50.786;4.332;2022-11-15T08:51:43;12.00;99.90
22771;DHT22;11552;50.786;4.332;2022-11-15T08:54:09;12.10;99.90
22771;DHT22;11552;50.786;4.332;2022-11-15T08:57:16;12.30;99.90
22771;DHT22;11552;50.786;4.332;2022-11-15T08:59:42;12.70;99.90
22771;DHT22;11552;50.786;4.332;2022-11-15T09:05:44;13.20;99.90
22771;DHT22;11552;50.786;4.332;2022-11-15T09:08:10;14.50;99.90
22771;DHT22;11552;50.786;4.332;2022-11-15T09:12:57;14.60;99.90
22771;DHT22;11552;50.786;4.332;2022-11-15T09:15:23;15.10;99.90
22771;DHT22;11552;50.786;4.332;2022-11-15T09:17:48;15.30;99.90
22771;DHT22;11552;50.786;4.332;2022-11-15T09:20:14;15.50;99.90
22771;DHT22;11552;50.786;4.332;2022-11-15T09:22:39;15.70;99.90
22771;DHT22;11552;50.786;4.332;2022-11-15T09:25:05;15.70;99.90
22771;DHT22;11552;50.786;4.332;2022-11-15T09:29:22;16.00;99.90
22771;DHT22;11552;50.786;4.332;2022-11-15T09:33:26;16.80;99.90
22771;DHT22;11552;50.786;4.332;2022-11-15T09:35:51;17.60;99.90
22771;DHT22;11552;50.786;4.332;2022-11-15T09:38:17;17.90;99.90
22771;DHT22;11552;50.786;4.332;2022-11-15T09:40:42;17.90;99.90
22771;DHT22;11552;50.786;4.332;2022-11-15T09:48:27;17.10;99.90
22771;DHT22;11552;50.786;4.332;2022-11-15T09:50:56;17.10;99.90
22771;DHT22;11552;50.786;4.332;2022-11-15T09:53:26;16.80;99.90
22771;DHT22;11552;50.786;4.332;2022-11-15T10:00:47;14.90;99.90
22771;DHT22;11552;50.786;4.332;2022-11-15T10:03:14;14.50;99.90
22771;DHT22;11552;50.786;4.332;2022-11-15T10:07:56;14.10;99.90
22771;DHT22;11552;50.786;4.332;2022-11-15T10:12:56;13.50;99.90
22771;DHT22;11552;50.786;4.332;2022-11-15T10:15:22;13.40;99.90
22771;DHT22;11552;50.786;4.332;2022-11-15T10:18:22;13.50;99.90
22771;DHT22;11552;50.786;4.332;2022-11-15T10:21:00;13.50;99.90
22771;DHT22;11552;50.786;4.332;2022-11-15T10:23:27;13.70;99.90
22771;DHT22;11552;50.786;4.332;2022-11-15T10:27:31;13.80;99.90
22771;DHT22;11552;50.786;4.332;2022-11-15T10:31:22;13.80;99.90
22771;DHT22;11552;50.786;4.332;2022-11-15T10:36:36;13.90;99.90
22771;DHT22;11552;50.786;4.332;2022-11-15T10:39:02;14.00;99.90
22771;DHT22;11552;50.786;4.332;2022-11-15T10:41:56;14.00;99.90
22771;DHT22;11552;50.786;4.332;2022-11-15T10:44:24;14.10;99.90
22771;DHT22;11552;50.786;4.332;2022-11-15T10:49:22;14.00;99.90
22771;DHT22;11552;50.786;4.332;2022-11-15T10:51:53;14.10;99.90
22771;DHT22;11552;50.786;4.332;2022-11-15T10:54:40;14.10;99.90
22771;DHT22;11552;50.786;4.332;2022-11-15T10:57:12;14.10;99.90
22771;DHT22;11552;50.786;4.332;2022-11-15T10:59:38;14.30;99.90
22771;DHT22;11552;50.786;4.332;2022-11-15T11:07:08;14.60;99.90
22771;DHT22;11552;50.786;4.332;2022-11-15T11:09:44;14.70;99.90
22771;DHT22;11552;50.786;4.332;2022-11-15T11:13:22;14.80;99.90
22771;DHT22;11552;50.786;4.332;2022-11-15T11:15:51;14.90;99.90
22771;DHT22;11552;50.786;4.332;2022-11-15T11:18:33;14.80;99.90
22771;DHT22;11552;50.786;4.332;2022-11-15T11:23:27;14.70;99.90
22771;DHT22;11552;50.786;4.332;2022-11-15T11:28:42;14.90;99.90
22771;DHT22;11552;50.786;4.332;2022-11-15T11:33:49;15.20;99.90
22771;DHT22;11552;50.786;4.332;2022-11-15T11:39:16;15.30;99.90
22771;DHT22;11552;50.786;4.332;2022-11-15T11:45:52;14.90;99.90
22771;DHT22;11552;50.786;4.332;2022-11-15T11:53:31;14.70;99.90
22771;DHT22;11552;50.786;4.332;2022-11-15T11:56:04;14.70;99.90
22771;DHT22;11552;50.786;4.332;2022-11-15T12:02:38;14.80;99.90
22771;DHT22;11552;50.786;4.332;2022-11-15T12:05:15;14.70;99.90
22771;DHT22;11552;50.786;4.332;2022-11-15T12:07:41;14.80;99.90
22771;DHT22;11552;50.786;4.332;2022-11-15T12:10:14;14.80;99.90
22771;DHT22;11552;50.786;4.332;2022-11-15T12:12:44;14.90;99.90
22771;DHT22;11552;50.786;4.332;2022-11-15T12:15:16;15.00;99.90
22771;DHT22;11552;50.786;4.332;2022-11-15T12:17:42;14.80;99.90
22771;DHT22;11552;50.786;4.332;2022-11-15T12:20:17;14.70;99.90
22771;DHT22;11552;50.786;4.332;2022-11-15T12:24:44;14.90;99.90
22771;DHT22;11552;50.786;4.332;2022-11-15T12:27:18;14.70;99.90
22771;DHT22;11552;50.786;4.332;2022-11-15T12:29:46;14.60;99.90
22771;DHT22;11552;50.786;4.332;2022-11-15T12:33:04;14.70;99.90
22771;DHT22;11552;50.786;4.332;2022-11-15T12:35:39;14.70;99.90
22771;DHT22;11552;50.786;4.332;2022-11-15T12:43:45;14.80;99.90
22771;DHT22;11552;50.786;4.332;2022-11-15T12:48:58;14.70;99.90
22771;DHT22;11552;50.786;4.332;2022-11-15T12:53:51;14.70;99.90
22771;DHT22;11552;50.786;4.332;2022-11-15T12:56:18;15.00;99.90
22771;DHT22;11552;50.786;4.332;2022-11-15T13:06:42;15.40;99.90
22771;DHT22;11552;50.786;4.332;2022-11-15T13:11:52;15.40;99.90
22771;DHT22;11552;50.786;4.332;2022-11-15T13:18:54;15.30;99.90
22771;DHT22;11552;50.786;4.332;2022-11-15T13:21:21;15.10;99.90
22771;DHT22;11552;50.786;4.332;2022-11-15T13:26:15;15.00;99.90
22771;DHT22;11552;50.786;4.332;2022-11-15T13:28:57;14.90;99.90
22771;DHT22;11552;50.786;4.332;2022-11-15T13:33:58;14.90;99.90
22771;DHT22;11552;50.786;4.332;2022-11-15T13:36:55;15.10;99.90
22771;DHT22;11552;50.786;4.332;2022-11-15T13:46:09;15.00;99.90
22771;DHT22;11552;50.786;4.332;2022-11-15T13:48:35;14.70;99.90
22771;DHT22;11552;50.786;4.332;2022-11-15T13:51:02;14.80;99.90
22771;DHT22;11552;50.786;4.332;2022-11-15T13:53:28;14.90;99.90
22771;DHT22;11552;50.786;4.332;2022-11-15T14:03:12;15.00;99.90
22771;DHT22;11552;50.786;4.332;2022-11-15T14:05:39;14.90;99.90
22771;DHT22;11552;50.786;4.332;2022-11-15T14:08:34;14.80;99.90
22771;DHT22;11552;50.786;4.332;2022-11-15T14:13:33;14.90;99.90
22771;DHT22;11552;50.786;4.332;2022-11-15T14:16:19;14.90;99.90
22771;DHT22;11552;50.786;4.332;2022-11-15T14:21:10;15.00;99.90
22771;DHT22;11552;50.786;4.332;2022-11-15T14:23:35;14.80;99.90
22771;DHT22;11552;50.786;4.332;2022-11-15T14:30:47;14.60;99.90
22771;DHT22;11552;50.786;4.332;2022-11-15T14:33:34;14.50;99.90
22771;DHT22;11552;50.786;4.332;2022-11-15T14:38:31;14.60;99.90
22771;DHT22;11552;50.786;4.332;2022-11-15T14:40:57;14.50;99.90
22771;DHT22;11552;50.786;4.332;2022-11-15T14:45:38;14.40;99.90
22771;DHT22;11552;50.786;4.332;2022-11-15T14:48:03;14.20;99.90
22771;DHT22;11552;50.786;4.332;2022-11-15T14:50:29;14.30;99.90
22771;DHT22;11552;50.786;4.332;2022-11-15T14:52:55;14.20;99.90
22771;DHT22;11552;50.786;4.332;2022-11-15T14:55:21;14.20;99.90
22771;DHT22;11552;50.786;4.332;2022-11-15T14:57:48;14.00;99.90
22771;DHT22;11552;50.786;4.332;2022-11-15T15:00:14;14.10;99.90
22771;DHT22;11552;50.786;4.332;2022-11-15T15:02:40;14.10;99.90
22771;DHT22;11552;50.786;4.332;2022-11-15T15:05:13;14.00;99.90
22771;DHT22;11552;50.786;4.332;2022-11-15T15:07:39;14.20;99.90
22771;DHT22;11552;50.786;4.332;2022-11-15T15:10:04;14.20;99.90
22771;DHT22;11552;50.786;4.332;2022-11-15T15:12:30;14.00;99.90
22771;DHT22;11552;50.786;4.332;2022-11-15T15:14:55;13.90;99.90
22771;DHT22;11552;50.786;4.332;2022-11-15T15:17:21;14.00;99.90
22771;DHT22;11552;50.786;4.332;2022-11-15T15:19:46;13.90;99.90
22771;DHT22;11552;50.786;4.332;2022-11-15T15:22:13;14.00;99.90
22771;DHT22;11552;50.786;4.332;2022-11-15T15:24:39;14.00;99.90
22771;DHT22;11552;50.786;4.332;2022-11-15T15:27:04;13.90;99.90
22771;DHT22;11552;50.786;4.332;2022-11-15T15:29:30;13.90;99.90
22771;DHT22;11552;50.786;4.332;2022-11-15T15:31:55;13.90;99.90
22771;DHT22;11552;50.786;4.332;2022-11-15T15:34:21;13.80;99.90
22771;DHT22;11552;50.786;4.332;2022-11-15T15:36:46;13.90;99.90
22771;DHT22;11552;50.786;4.332;2022-11-15T15:39:12;13.70;99.90
22771;DHT22;11552;50.786;4.332;2022-11-15T15:41:37;13.80;99.90
22771;DHT22;11552;50.786;4.332;2022-11-15T15:44:03;13.70;99.90
22771;DHT22;11552;50.786;4.332;2022-11-15T15:46:28;13.60;99.90
22771;DHT22;11552;50.786;4.332;2022-11-15T15:48:54;13.80;99.90
22771;DHT22;11552;50.786;4.332;2022-11-15T15:51:34;13.70;99.90
22771;DHT22;11552;50.786;4.332;2022-11-15T15:55:33;13.60;99.90
22771;DHT22;11552;50.786;4.332;2022-11-15T15:58:23;13.60;99.90
22771;DHT22;11552;50.786;4.332;2022-11-15T16:00:48;13.60;99.90
22771;DHT22;11552;50.786;4.332;2022-11-15T16:03:14;13.50;99.90
22771;DHT22;11552;50.786;4.332;2022-11-15T16:05:39;13.40;99.90
22771;DHT22;11552;50.786;4.332;2022-11-15T16:08:05;13.50;99.90
22771;DHT22;11552;50.786;4.332;2022-11-15T16:10:31;13.60;99.90
22771;DHT22;11552;50.786;4.332;2022-11-15T16:15:01;13.70;99.90
22771;DHT22;11552;50.786;4.332;2022-11-15T16:17:54;13.50;99.90
22771;DHT22;11552;50.786;4.332;2022-11-15T16:20:22;13.50;99.90
22771;DHT22;11552;50.786;4.332;2022-11-15T16:22:48;13.60;99.90
22771;DHT22;11552;50.786;4.332;2022-11-15T16:25:13;13.70;99.90
22771;DHT22;11552;50.786;4.332;2022-11-15T16:27:39;13.70;99.90
22771;DHT22;11552;50.786;4.332;2022-11-15T16:30:17;13.70;99.90
22771;DHT22;11552;50.786;4.332;2022-11-15T16:32:43;13.70;99.90
22771;DHT22;11552;50.786;4.332;2022-11-15T16:35:12;13.70;99.90
22771;DHT22;11552;50.786;4.332;2022-11-15T16:37:38;13.50;99.90
22771;DHT22;11552;50.786;4.332;2022-11-15T16:40:26;13.50;99.90
22771;DHT22;11552;50.786;4.332;2022-11-15T16:42:51;13.50;99.90
22771;DHT22;11552;50.786;4.332;2022-11-15T16:45:17;13.70;99.90
22771;DHT22;11552;50.786;4.332;2022-11-15T16:47:43;13.70;99.90
22771;DHT22;11552;50.786;4.332;2022-11-15T16:50:19;13.70;99.90
22771;DHT22;11552;50.786;4.332;2022-11-15T16:53:59;13.80;99.90
22771;DHT22;11552;50.786;4.332;2022-11-15T16:56:28;13.70;99.90
22771;DHT22;11552;50.786;4.332;2022-11-15T16:58:55;13.70;99.90
22771;DHT22;11552;50.786;4.332;2022-11-15T17:01:32;13.60;99.90
22771;DHT22;11552;50.786;4.332;2022-11-15T17:03:58;13.70;99.90
22771;DHT22;11552;50.786;4.332;2022-11-15T17:06:24;13.50;99.90
22771;DHT22;11552;50.786;4.332;2022-11-15T17:08:50;13.70;99.90
22771;DHT22;11552;50.786;4.332;2022-11-15T17:11:19;13.60;99.90
22771;DHT22;11552;50.786;4.332;2022-11-15T17:13:45;13.70;99.90
22771;DHT22;11552;50.786;4.332;2022-11-15T17:16:11;13.70;99.90
22771;DHT22;11552;50.786;4.332;2022-11-15T17:18:38;13.60;99.90
22771;DHT22;11552;50.786;4.332;2022-11-15T17:23:57;13.50;99.90
22771;DHT22;11552;50.786;4.332;2022-11-15T17:26:23;13.50;99.90
22771;DHT22;11552;50.786;4.332;2022-11-15T17:28:52;13.40;99.90
22771;DHT22;11552;50.786;4.332;2022-11-15T17:31:18;13.60;99.90
22771;DHT22;11552;50.786;4.332;2022-11-15T17:33:43;13.60;99.90
22771;DHT22;11552;50.786;4.332;2022-11-15T17:36:09;13.60;99.90
22771;DHT22;11552;50.786;4.332;2022-11-15T17:38:36;13.60;99.90
22771;DHT22;11552;50.786;4.332;2022-11-15T17:41:02;13.50;99.90
22771;DHT22;11552;50.786;4.332;2022-11-15T17:43:28;13.50;99.90
22771;DHT22;11552;50.786;4.332;2022-11-15T17:45:54;13.40;99.90
22771;DHT22;11552;50.786;4.332;2022-11-15T17:48:19;13.50;99.90
22771;DHT22;11552;50.786;4.332;2022-11-15T17:50:53;13.50;99.90
22771;DHT22;11552;50.786;4.332;2022-11-15T17:53:19;13.50;99.90
22771;DHT22;11552;50.786;4.332;2022-11-15T17:55:44;13.50;99.90
22771;DHT22;11552;50.786;4.332;2022-11-15T17:58:10;13.50;99.90
22771;DHT22;11552;50.786;4.332;2022-11-15T18:00:35;13.40;99.90
22771;DHT22;11552;50.786;4.332;2022-11-15T18:03:24;13.40;99.90
22771;DHT22;11552;50.786;4.332;2022-11-15T18:05:49;13.50;99.90
22771;DHT22;11552;50.786;4.332;2022-11-15T18:08:15;13.60;99.90
22771;DHT22;11552;50.786;4.332;2022-11-15T18:10:40;13.60;99.90
22771;DHT22;11552;50.786;4.332;2022-11-15T18:13:06;13.60;99.90
22771;DHT22;11552;50.786;4.332;2022-11-15T18:16:56;13.60;99.90
22771;DHT22;11552;50.786;4.332;2022-11-15T18:19:21;13.60;99.90
22771;DHT22;11552;50.786;4.332;2022-11-15T18:21:47;13.70;99.90
22771;DHT22;11552;50.786;4.332;2022-11-15T18:24:29;13.70;99.90
22771;DHT22;11552;50.786;4.332;2022-11-15T18:26:55;13.50;99.90
22771;DHT22;11552;50.786;4.332;2022-11-15T18:29:20;13.50;99.90
22771;DHT22;11552;50.786;4.332;2022-11-15T18:31:48;13.70;99.90
22771;DHT22;11552;50.786;4.332;2022-11-15T18:34:19;13.70;99.90
22771;DHT22;11552;50.786;4.332;2022-11-15T18:37:35;13.60;99.90
22771;DHT22;11552;50.786;4.332;2022-11-15T18:40:00;13.80;99.90
22771;DHT22;11552;50.786;4.332;2022-11-15T18:42:26;13.70;99.90
22771;DHT22;11552;50.786;4.332;2022-11-15T18:44:51;13.70;99.90
22771;DHT22;11552;50.786;4.332;2022-11-15T18:47:51;13.70;99.90
22771;DHT22;11552;50.786;4.332;2022-11-15T18:50:17;13.80;99.90
22771;DHT22;11552;50.786;4.332;2022-11-15T18:52:42;13.70;99.90